Time;durP1;ratioP1;P1;durP2;ratioP2;P2;SDS_P1;SDS_P2;PMS_P1;PMS_P2;Temp;Humidity;BMP_temperature;BMP_pressure;BME280_temperature;BME280_humidity;BME280_pressure;Samples;Min_cycle;Max_cycle;Signal;HPM_P1;HPM_P2
2024/01/05 00:02:14;;;;;;;1.03;0.90;;;22.30;57.50;;;;;;4932693;29;20448;-80
2024/01/05 00:04:43;;;;;;;0.60;0.60;;;22.30;57.50;;;;;;4929094;29;21013;-80
2024/01/05 00:07:11;;;;;;;0.63;0.63;;;22.30;57.50;;;;;;4935333;29;20502;-82
2024/01/05 00:09:39;;;;;;;0.67;0.67;;;22.30;57.50;;;;;;4935622;29;20456;-80
2024/01/05 00:12:08;;;;;;;0.77;0.77;;;22.20;57.50;;;;;;4935535;29;20507;-81
2024/01/05 00:14:38;;;;;;;0.97;0.87;;;22.20;57.50;;;;;;4934928;29;20959;-79
2024/01/05 00:17:06;;;;;;;0.70;0.70;;;22.20;57.50;;;;;;4920428;29;20494;-83
2024/01/05 00:19:34;;;;;;;0.77;0.60;;;22.20;57.60;;;;;;4944595;29;20466;-79
2024/01/05 00:22:04;;;;;;;0.70;0.60;;;22.20;57.60;;;;;;4942807;29;20464;-79
2024/01/05 00:24:32;;;;;;;0.80;0.60;;;22.20;57.60;;;;;;4930367;29;20494;-80
2024/01/05 00:27:01;;;;;;;0.70;0.70;;;22.20;57.60;;;;;;4934342;29;20455;-80
2024/01/05 00:29:29;;;;;;;1.53;1.20;;;22.20;57.60;;;;;;4939473;28;20492;-80
2024/01/05 00:31:57;;;;;;;0.70;0.67;;;22.20;57.60;;;;;;4935342;29;20499;-80
2024/01/05 00:34:25;;;;;;;1.03;0.90;;;22.20;57.60;;;;;;4935333;29;20455;-79
2024/01/05 00:36:54;;;;;;;1.90;0.70;;;22.10;57.60;;;;;;4935531;29;20448;-79
2024/01/05 00:39:24;;;;;;;0.90;0.67;;;22.10;57.60;;;;;;4934889;29;20462;-80
2024/01/05 00:41:52;;;;;;;1.40;1.20;;;22.10;57.70;;;;;;4942140;29;20502;-79
2024/01/05 00:44:20;;;;;;;0.80;0.70;;;22.10;57.70;;;;;;4934236;29;20975;-83
2024/01/05 00:46:48;;;;;;;0.50;0.50;;;22.10;57.70;;;;;;4934801;29;20460;-80
2024/01/05 00:49:16;;;;;;;0.90;0.90;;;22.10;57.70;;;;;;4934252;29;20462;-79
2024/01/05 00:51:45;;;;;;;0.80;0.67;;;22.10;57.70;;;;;;4929420;29;20438;-79
2024/01/05 00:54:13;;;;;;;0.90;0.90;;;22.10;57.70;;;;;;4942360;29;20819;-80
2024/01/05 00:56:43;;;;;;;0.80;0.80;;;22.00;57.70;;;;;;4953327;29;20463;-79
2024/01/05 00:59:12;;;;;;;0.70;0.70;;;22.00;57.70;;;;;;4940381;29;20476;-79
2024/01/05 01:01:41;;;;;;;0.70;0.70;;;22.00;57.70;;;;;;4939126;29;20459;-85
2024/01/05 01:04:09;;;;;;;0.87;0.60;;;22.00;57.70;;;;;;4933123;29;20479;-79
2024/01/05 01:06:37;;;;;;;1.27;0.80;;;22.00;57.80;;;;;;4937897;29;20443;-79
2024/01/05 01:09:07;;;;;;;0.80;0.60;;;22.00;57.80;;;;;;4953557;29;20441;-80
2024/01/05 01:11:35;;;;;;;1.13;1.03;;;22.00;57.80;;;;;;4951332;29;20466;-81
2024/01/05 01:14:05;;;;;;;0.60;0.60;;;22.00;57.80;;;;;;4914748;29;20472;-79
2024/01/05 01:16:33;;;;;;;0.60;0.60;;;22.00;57.80;;;;;;4933386;29;20474;-80
2024/01/05 01:19:01;;;;;;;0.50;0.50;;;22.00;57.80;;;;;;4932446;29;20542;-80
2024/01/05 01:21:30;;;;;;;0.90;0.77;;;21.90;57.80;;;;;;4939461;29;20451;-80
2024/01/05 01:23:58;;;;;;;0.97;0.60;;;21.90;57.80;;;;;;4934398;29;20491;-82
2024/01/05 01:26:26;;;;;;;0.80;0.80;;;21.90;57.80;;;;;;4933025;29;20470;-79
2024/01/05 01:28:54;;;;;;;1.00;0.70;;;21.90;57.90;;;;;;4934094;29;20558;-79
2024/01/05 01:31:24;;;;;;;0.50;0.50;;;21.90;57.90;;;;;;4934500;29;20431;-80
2024/01/05 01:33:52;;;;;;;0.70;0.70;;;21.90;57.90;;;;;;4933869;29;20912;-80
2024/01/05 01:36:20;;;;;;;0.70;0.53;;;21.80;57.90;;;;;;4933709;29;20459;-80
2024/01/05 01:38:49;;;;;;;0.70;0.63;;;21.80;57.90;;;;;;4935226;29;20876;-80
2024/01/05 01:41:17;;;;;;;0.90;0.70;;;21.80;57.90;;;;;;4937173;29;20459;-80
2024/01/05 01:43:48;;;;;;;0.90;0.60;;;21.80;57.90;;;;;;4935188;29;20471;-79
2024/01/05 01:46:22;;;;;;;0.60;0.60;;;21.80;57.90;;;;;;4935679;29;20455;-81
2024/01/05 01:48:52;;;;;;;0.90;0.73;;;21.80;57.90;;;;;;4897442;29;20456;-80
2024/01/05 01:51:22;;;;;;;0.80;0.80;;;21.80;57.90;;;;;;4944112;29;20450;-82
2024/01/05 01:53:51;;;;;;;0.50;0.50;;;21.80;57.90;;;;;;4951924;29;20863;-82
2024/01/05 01:56:21;;;;;;;0.63;0.63;;;21.80;57.90;;;;;;4953420;29;20470;-80
2024/01/05 01:58:49;;;;;;;0.80;0.73;;;21.80;58.00;;;;;;4935900;29;20500;-80
2024/01/05 02:01:18;;;;;;;0.90;0.80;;;21.80;58.00;;;;;;4935263;29;20451;-79
2024/01/05 02:03:46;;;;;;;1.03;0.77;;;21.70;58.00;;;;;;4931787;29;20467;-79
2024/01/05 02:06:16;;;;;;;0.60;0.60;;;21.70;58.00;;;;;;4934548;29;20463;-80
2024/01/05 02:08:45;;;;;;;1.07;1.00;;;21.70;58.00;;;;;;4935279;29;20455;-80
2024/01/05 02:11:14;;;;;;;1.03;0.90;;;21.70;58.00;;;;;;4953212;29;20831;-84
2024/01/05 02:13:42;;;;;;;0.60;0.60;;;21.70;58.00;;;;;;4944308;29;20455;-80
2024/01/05 02:16:10;;;;;;;0.53;0.53;;;21.70;58.00;;;;;;4933757;29;20472;-82
2024/01/05 02:18:38;;;;;;;1.23;0.70;;;21.70;58.00;;;;;;4935487;29;20462;-82
2024/01/05 02:21:09;;;;;;;1.70;0.83;;;21.70;58.00;;;;;;4940545;29;20461;-81
2024/01/05 02:23:39;;;;;;;0.80;0.80;;;21.70;58.00;;;;;;4943491;29;20465;-80
2024/01/05 02:26:07;;;;;;;0.70;0.70;;;21.70;58.00;;;;;;4917359;29;20480;-85
2024/01/05 02:28:38;;;;;;;0.50;0.47;;;21.70;58.10;;;;;;4932610;29;20486;-80
2024/01/05 02:31:06;;;;;;;0.80;0.77;;;21.70;58.10;;;;;;4934421;29;20427;-79
2024/01/05 02:33:35;;;;;;;0.70;0.70;;;21.60;58.10;;;;;;4952186;29;20457;-80
2024/01/05 02:36:03;;;;;;;0.80;0.80;;;21.60;58.10;;;;;;4937762;29;20546;-80
2024/01/05 02:38:31;;;;;;;1.10;0.93;;;21.60;58.10;;;;;;4934003;29;20442;-79
2024/01/05 02:41:01;;;;;;;0.67;0.67;;;21.60;58.10;;;;;;4934680;29;20456;-80
2024/01/05 02:43:29;;;;;;;0.60;0.60;;;21.60;58.10;;;;;;4934418;29;20554;-79
2024/01/05 02:45:58;;;;;;;0.90;0.60;;;21.60;58.10;;;;;;4938634;29;20544;-82
2024/01/05 02:48:26;;;;;;;0.70;0.63;;;21.60;58.10;;;;;;4954660;28;20437;-79
2024/01/05 02:50:54;;;;;;;0.73;0.73;;;21.60;58.10;;;;;;4940534;29;20489;-79
2024/01/05 02:53:23;;;;;;;0.57;0.53;;;21.60;58.10;;;;;;4952521;29;20918;-79
2024/01/05 02:55:51;;;;;;;0.60;0.60;;;21.60;58.10;;;;;;4948087;29;20462;-80
2024/01/05 02:58:20;;;;;;;1.03;1.00;;;21.60;58.10;;;;;;4935094;29;21037;-81
2024/01/05 03:00:49;;;;;;;2.20;0.80;;;21.60;58.10;;;;;;4931837;29;20866;-83
2024/01/05 03:03:18;;;;;;;0.97;0.90;;;21.60;58.10;;;;;;4941809;29;20566;-79
2024/01/05 03:05:47;;;;;;;0.73;0.70;;;21.60;58.10;;;;;;4937356;29;20469;-79
2024/01/05 03:08:15;;;;;;;0.90;0.60;;;21.50;58.10;;;;;;4919892;29;20477;-79
2024/01/05 03:10:44;;;;;;;0.67;0.63;;;21.50;58.10;;;;;;4939358;29;20446;-81
2024/01/05 03:13:12;;;;;;;0.90;0.90;;;21.50;58.10;;;;;;4923662;29;20470;-80
2024/01/05 03:15:41;;;;;;;0.70;0.70;;;21.50;58.10;;;;;;4953338;29;20513;-80
2024/01/05 03:18:09;;;;;;;0.77;0.77;;;21.50;58.10;;;;;;4937116;29;20477;-80
2024/01/05 03:20:39;;;;;;;0.83;0.83;;;21.50;58.10;;;;;;4948255;29;20460;-80
2024/01/05 03:23:08;;;;;;;0.80;0.80;;;21.50;58.10;;;;;;4955401;29;20470;-79
2024/01/05 03:25:36;;;;;;;0.80;0.80;;;21.50;58.10;;;;;;4945885;29;20481;-79
2024/01/05 03:28:04;;;;;;;0.60;0.60;;;21.50;58.10;;;;;;4946072;29;20526;-80
2024/01/05 03:30:32;;;;;;;0.63;0.63;;;21.50;58.10;;;;;;4937037;29;20490;-81
2024/01/05 03:33:03;;;;;;;0.70;0.70;;;21.50;58.10;;;;;;4949234;29;20457;-80
2024/01/05 03:35:32;;;;;;;0.70;0.70;;;21.50;58.10;;;;;;4955655;29;20524;-79
2024/01/05 03:38:00;;;;;;;0.70;0.70;;;21.50;58.10;;;;;;4953386;29;20445;-80
2024/01/05 03:40:28;;;;;;;0.60;0.60;;;21.50;58.10;;;;;;4955432;29;20441;-80
2024/01/05 03:42:57;;;;;;;0.70;0.60;;;21.50;58.10;;;;;;4954627;29;20494;-80
2024/01/05 03:45:25;;;;;;;0.70;0.70;;;21.50;58.10;;;;;;4952664;29;20534;-80
2024/01/05 03:47:53;;;;;;;0.67;0.67;;;21.50;58.00;;;;;;4947858;29;20480;-80
2024/01/05 03:50:23;;;;;;;0.50;0.50;;;21.50;58.00;;;;;;4928387;29;20934;-82
2024/01/05 03:52:51;;;;;;;0.97;0.60;;;21.50;58.10;;;;;;4945956;29;20445;-80
2024/01/05 03:55:20;;;;;;;0.70;0.70;;;21.40;58.10;;;;;;4951156;29;20459;-80
2024/01/05 03:57:48;;;;;;;0.50;0.50;;;21.40;58.10;;;;;;4919020;29;20466;-80
2024/01/05 04:00:17;;;;;;;0.40;0.40;;;21.40;58.10;;;;;;4955802;29;20445;-80
2024/01/05 04:02:46;;;;;;;0.70;0.70;;;21.40;58.10;;;;;;4946034;29;20466;-80
2024/01/05 04:05:14;;;;;;;0.53;0.50;;;21.40;58.10;;;;;;4926203;29;20934;-82
2024/01/05 04:07:44;;;;;;;0.70;0.70;;;21.40;58.10;;;;;;4934724;29;20469;-80
2024/01/05 04:10:12;;;;;;;0.60;0.60;;;21.40;58.10;;;;;;4935961;29;20449;-81
2024/01/05 04:12:40;;;;;;;0.43;0.43;;;21.40;58.10;;;;;;4946387;29;20936;-80
2024/01/05 04:15:09;;;;;;;0.60;0.60;;;21.40;58.10;;;;;;4952618;29;20441;-79
2024/01/05 04:17:37;;;;;;;0.60;0.60;;;21.40;58.10;;;;;;4918332;29;20498;-81
2024/01/05 04:20:07;;;;;;;1.03;0.93;;;21.40;58.10;;;;;;4935864;29;20449;-79
2024/01/05 04:22:35;;;;;;;0.70;0.70;;;21.30;58.10;;;;;;4941077;29;20859;-83
2024/01/05 04:25:05;;;;;;;1.43;1.33;;;21.40;58.10;;;;;;4935418;29;20466;-80
2024/01/05 04:27:33;;;;;;;0.50;0.50;;;21.30;58.20;;;;;;4935624;29;20433;-80
2024/01/05 04:30:01;;;;;;;0.60;0.60;;;21.30;58.10;;;;;;4939659;29;20493;-80
2024/01/05 04:32:30;;;;;;;0.60;0.60;;;21.30;58.20;;;;;;4943167;29;20921;-84
2024/01/05 04:34:58;;;;;;;0.60;0.60;;;21.30;58.10;;;;;;4932479;29;20540;-79
2024/01/05 04:37:26;;;;;;;0.80;0.80;;;21.30;58.10;;;;;;4935344;29;20499;-79
2024/01/05 04:39:54;;;;;;;1.10;0.80;;;21.30;58.20;;;;;;4935764;29;20466;-80
2024/01/05 04:42:26;;;;;;;0.60;0.60;;;21.30;58.20;;;;;;4933904;29;20461;-79
2024/01/05 04:44:54;;;;;;;0.50;0.50;;;21.30;58.20;;;;;;4934921;29;20467;-82
2024/01/05 04:47:23;;;;;;;0.77;0.77;;;21.30;58.20;;;;;;4936385;29;20536;-79
2024/01/05 04:49:51;;;;;;;0.70;0.70;;;21.30;58.20;;;;;;4933072;29;20467;-80
2024/01/05 04:52:20;;;;;;;0.77;0.77;;;21.30;58.20;;;;;;4928757;29;20485;-81
2024/01/05 04:54:48;;;;;;;0.67;0.60;;;21.30;58.20;;;;;;4953990;29;20444;-80
2024/01/05 04:57:16;;;;;;;0.57;0.57;;;21.30;58.20;;;;;;4939945;29;20466;-79
2024/01/05 04:59:46;;;;;;;0.80;0.70;;;21.20;58.20;;;;;;4933681;29;20465;-79
2024/01/05 05:02:14;;;;;;;0.67;0.67;;;21.30;58.30;;;;;;4943565;29;20438;-79
2024/01/05 05:04:42;;;;;;;0.87;0.80;;;21.20;58.30;;;;;;4953484;29;20429;-79
2024/01/05 05:07:12;;;;;;;0.60;0.60;;;21.30;58.30;;;;;;4952978;29;20791;-80
2024/01/05 05:09:41;;;;;;;0.50;0.50;;;21.30;58.30;;;;;;4934136;29;20442;-80
2024/01/05 05:12:09;;;;;;;0.60;0.60;;;21.30;58.30;;;;;;4935626;29;20463;-80
2024/01/05 05:14:39;;;;;;;0.70;0.70;;;21.30;58.30;;;;;;4934843;29;20940;-79
2024/01/05 05:17:08;;;;;;;0.60;0.60;;;21.40;58.30;;;;;;4945150;29;20462;-80
2024/01/05 05:19:37;;;;;;;0.60;0.60;;;21.40;58.30;;;;;;4935895;29;20470;-80
2024/01/05 05:22:05;;;;;;;0.93;0.70;;;21.50;58.30;;;;;;4953698;29;20447;-81
2024/01/05 05:24:34;;;;;;;0.53;0.53;;;21.60;58.20;;;;;;4950367;29;20442;-80
2024/01/05 05:27:02;;;;;;;0.73;0.67;;;21.60;58.20;;;;;;4933093;29;20528;-79
2024/01/05 05:29:30;;;;;;;0.80;0.80;;;21.70;58.00;;;;;;4949119;29;20502;-84
2024/01/05 05:31:58;;;;;;;0.67;0.67;;;21.70;58.00;;;;;;4928852;29;20464;-79
2024/01/05 05:34:28;;;;;;;0.70;0.70;;;21.80;57.90;;;;;;4916785;29;20470;-80
2024/01/05 05:36:56;;;;;;;0.77;0.77;;;21.90;57.90;;;;;;4933972;29;20466;-79
2024/01/05 05:39:25;;;;;;;0.63;0.63;;;22.00;57.80;;;;;;4934742;29;20452;-80
2024/01/05 05:41:53;;;;;;;0.80;0.80;;;22.10;57.80;;;;;;4941645;29;20455;-80
2024/01/05 05:44:22;;;;;;;0.80;0.77;;;22.10;57.70;;;;;;4947953;29;20455;-80
2024/01/05 05:46:51;;;;;;;0.70;0.70;;;22.20;57.60;;;;;;4932373;29;21006;-81
2024/01/05 05:49:19;;;;;;;1.00;1.00;;;22.30;57.50;;;;;;4934052;29;20451;-81
2024/01/05 05:51:49;;;;;;;0.67;0.60;;;22.40;57.50;;;;;;4933474;29;20467;-80
2024/01/05 05:54:17;;;;;;;0.77;0.70;;;22.50;57.30;;;;;;4953708;29;20446;-81
2024/01/05 05:56:45;;;;;;;0.70;0.70;;;22.50;57.20;;;;;;4952099;29;20932;-82
2024/01/05 05:59:13;;;;;;;0.70;0.63;;;22.50;57.10;;;;;;4935820;29;20468;-80
2024/01/05 06:01:41;;;;;;;0.80;0.80;;;22.50;57.10;;;;;;4933634;29;20467;-80
2024/01/05 06:04:10;;;;;;;0.70;0.70;;;22.60;57.00;;;;;;4920718;29;20453;-79
2024/01/05 06:06:38;;;;;;;0.60;0.60;;;22.60;57.00;;;;;;4917548;29;20631;-79
2024/01/05 06:09:08;;;;;;;0.57;0.57;;;22.60;56.90;;;;;;4929660;29;20464;-80
2024/01/05 06:11:36;;;;;;;0.77;0.70;;;22.50;56.90;;;;;;4942456;29;20991;-81
2024/01/05 06:14:05;;;;;;;0.80;0.80;;;22.50;56.90;;;;;;4941108;29;20452;-80
2024/01/05 06:16:33;;;;;;;0.70;0.70;;;22.50;57.00;;;;;;4932924;29;21011;-81
2024/01/05 06:19:02;;;;;;;2.97;0.90;;;22.40;57.00;;;;;;4933009;29;20452;-80
2024/01/05 06:21:30;;;;;;;0.67;0.67;;;22.40;57.00;;;;;;4940161;28;20530;-82
2024/01/05 06:23:59;;;;;;;0.77;0.77;;;22.30;57.10;;;;;;4941233;29;20442;-80
2024/01/05 06:26:30;;;;;;;0.67;0.67;;;22.30;57.10;;;;;;4934664;29;20895;-80
2024/01/05 06:28:58;;;;;;;0.70;0.60;;;22.30;57.20;;;;;;4937434;29;20482;-80
2024/01/05 06:31:26;;;;;;;0.50;0.50;;;22.20;57.30;;;;;;4934659;29;20499;-79
2024/01/05 06:33:54;;;;;;;0.73;0.73;;;22.20;57.30;;;;;;4937498;29;20463;-79
2024/01/05 06:36:26;;;;;;;0.70;0.70;;;22.10;57.30;;;;;;4949285;29;20956;-80
2024/01/05 06:38:54;;;;;;;0.70;0.70;;;22.10;57.40;;;;;;4941131;29;20482;-79
2024/01/05 06:41:22;;;;;;;0.80;0.80;;;22.10;57.50;;;;;;4922084;29;20471;-80
2024/01/05 06:43:52;;;;;;;0.60;0.60;;;22.00;57.50;;;;;;4935136;29;20515;-81
2024/01/05 06:46:20;;;;;;;0.70;0.70;;;22.00;57.60;;;;;;4933433;29;20922;-82
2024/01/05 06:48:48;;;;;;;0.60;0.60;;;22.00;57.60;;;;;;4936156;29;20940;-80
2024/01/05 06:51:17;;;;;;;0.77;0.70;;;22.00;57.60;;;;;;4932114;29;20959;-80
2024/01/05 06:53:45;;;;;;;1.03;0.70;;;22.00;57.70;;;;;;4952775;29;20458;-79
2024/01/05 06:56:18;;;;;;;0.83;0.80;;;22.10;57.70;;;;;;4947941;29;20924;-81
2024/01/05 06:58:46;;;;;;;0.60;0.60;;;22.10;57.70;;;;;;4937475;29;20427;-80
2024/01/05 07:01:17;;;;;;;0.60;0.60;;;22.10;57.60;;;;;;4933335;29;20472;-79
2024/01/05 07:03:45;;;;;;;0.70;0.67;;;22.10;57.60;;;;;;4946074;29;21031;-79
2024/01/05 07:06:14;;;;;;;0.97;0.97;;;22.10;57.60;;;;;;4947574;29;20500;-80
2024/01/05 07:08:42;;;;;;;0.63;0.63;;;22.20;57.60;;;;;;4937260;29;20479;-82
2024/01/05 07:11:19;;;;;;;0.70;0.70;;;22.20;57.50;;;;;;4936055;29;20474;-81
2024/01/05 07:13:47;;;;;;;0.77;0.70;;;22.20;57.50;;;;;;4936827;29;20439;-80
2024/01/05 07:16:18;;;;;;;0.97;0.90;;;22.20;57.50;;;;;;4941459;29;20463;-80
2024/01/05 07:18:46;;;;;;;0.70;0.70;;;22.20;57.50;;;;;;4936174;29;20448;-79
2024/01/05 07:21:15;;;;;;;0.90;0.90;;;22.30;57.40;;;;;;4935163;29;21062;-80
2024/01/05 07:23:43;;;;;;;0.83;0.77;;;22.30;57.40;;;;;;4925915;29;20463;-81
2024/01/05 07:26:12;;;;;;;1.83;0.70;;;22.30;57.40;;;;;;4938512;29;20464;-80
2024/01/05 07:28:41;;;;;;;0.63;0.63;;;22.30;57.40;;;;;;4919198;29;20562;-82
2024/01/05 07:31:09;;;;;;;0.77;0.77;;;22.30;57.40;;;;;;4935879;29;20442;-80
2024/01/05 07:33:40;;;;;;;0.80;0.80;;;22.30;57.40;;;;;;4948113;28;20506;-79
2024/01/05 07:36:09;;;;;;;0.90;0.80;;;22.30;57.40;;;;;;4954589;29;20448;-81
2024/01/05 07:38:37;;;;;;;0.90;0.70;;;22.30;57.40;;;;;;4949903;29;20458;-80
2024/01/05 07:41:05;;;;;;;0.60;0.60;;;22.30;57.40;;;;;;4949069;29;20454;-80
2024/01/05 07:43:34;;;;;;;0.70;0.60;;;22.30;57.40;;;;;;4936943;29;20452;-81
2024/01/05 07:46:03;;;;;;;0.97;0.80;;;22.30;57.40;;;;;;4930987;29;20509;-80
2024/01/05 07:48:31;;;;;;;0.93;0.70;;;22.30;57.40;;;;;;4922949;29;20497;-80
2024/01/05 07:51:05;;;;;;;0.80;0.80;;;22.30;57.40;;;;;;4930068;29;20485;-82
2024/01/05 07:53:33;;;;;;;0.83;0.83;;;22.30;57.40;;;;;;4936968;29;20454;-80
2024/01/05 07:56:02;;;;;;;0.73;0.73;;;22.30;57.40;;;;;;4935695;29;20534;-83
2024/01/05 07:58:31;;;;;;;0.80;0.80;;;22.20;57.40;;;;;;4937388;29;20468;-80
2024/01/05 08:00:59;;;;;;;0.60;0.60;;;22.30;57.40;;;;;;4916012;29;20539;-79
2024/01/05 08:03:28;;;;;;;1.90;0.90;;;22.20;57.40;;;;;;4933911;29;20471;-80
2024/01/05 08:05:57;;;;;;;0.60;0.60;;;22.20;57.40;;;;;;4935487;29;21008;-79
2024/01/05 08:08:26;;;;;;;1.30;0.97;;;22.20;57.40;;;;;;4935506;29;20486;-79
2024/01/05 08:10:55;;;;;;;0.80;0.80;;;22.20;57.40;;;;;;4943572;29;20455;-80
2024/01/05 08:13:26;;;;;;;0.70;0.70;;;22.20;57.40;;;;;;4930664;29;20461;-80
2024/01/05 08:15:54;;;;;;;0.77;0.70;;;22.20;57.40;;;;;;4935029;29;20491;-81
2024/01/05 08:18:22;;;;;;;0.70;0.70;;;22.20;57.40;;;;;;4930712;29;20459;-80
2024/01/05 08:20:51;;;;;;;0.80;0.80;;;22.20;57.50;;;;;;4948631;29;20510;-80
2024/01/05 08:23:19;;;;;;;1.30;0.90;;;22.10;57.50;;;;;;4939757;29;20476;-81
2024/01/05 08:25:49;;;;;;;0.50;0.50;;;22.10;57.50;;;;;;4926965;29;20474;-81
2024/01/05 08:28:17;;;;;;;0.97;0.73;;;22.10;57.50;;;;;;4920667;29;20488;-81
2024/01/05 08:30:46;;;;;;;0.60;0.60;;;22.10;57.50;;;;;;4932665;29;20479;-80
2024/01/05 08:33:14;;;;;;;0.93;0.83;;;22.10;57.50;;;;;;4931574;29;20559;-81
2024/01/05 08:35:43;;;;;;;0.60;0.60;;;22.10;57.50;;;;;;4926652;29;20468;-81
2024/01/05 08:38:11;;;;;;;0.83;0.83;;;22.10;57.60;;;;;;4925848;29;20463;-80
2024/01/05 08:40:39;;;;;;;0.70;0.70;;;22.10;57.60;;;;;;4945632;29;20452;-79
2024/01/05 08:43:10;;;;;;;1.03;0.60;;;22.10;57.60;;;;;;4928912;29;20495;-83
2024/01/05 08:45:38;;;;;;;0.73;0.73;;;22.10;57.60;;;;;;4930910;28;20538;-80
2024/01/05 08:48:07;;;;;;;0.60;0.60;;;22.10;57.60;;;;;;4928068;29;20504;-79
2024/01/05 08:50:35;;;;;;;0.73;0.73;;;22.20;57.60;;;;;;4911625;29;20477;-84
2024/01/05 08:53:04;;;;;;;0.70;0.70;;;22.20;57.50;;;;;;4932363;29;20957;-80
2024/01/05 08:55:32;;;;;;;0.87;0.60;;;22.20;57.50;;;;;;4931088;29;20468;-83
2024/01/05 08:58:00;;;;;;;0.67;0.67;;;22.20;57.50;;;;;;4926391;29;20499;-84
2024/01/05 09:00:30;;;;;;;0.73;0.73;;;22.20;57.50;;;;;;4933479;29;20456;-80
2024/01/05 09:02:58;;;;;;;0.70;0.70;;;22.30;57.40;;;;;;4932633;29;20464;-80
2024/01/05 09:05:26;;;;;;;0.77;0.77;;;22.30;57.40;;;;;;4925460;29;20476;-82
2024/01/05 09:08:03;;;;;;;0.87;0.80;;;22.30;57.40;;;;;;5079453;27;20895;-65
2024/01/05 09:10:32;;;;;;;0.80;0.80;;;22.30;57.40;;;;;;5068994;28;20446;-63
2024/01/05 09:13:01;;;;;;;0.60;0.60;;;22.40;57.40;;;;;;5063385;28;20461;-63
2024/01/05 09:15:29;;;;;;;0.80;0.80;;;22.40;57.30;;;;;;5067936;28;20441;-63
2024/01/05 09:17:57;;;;;;;0.50;0.50;;;22.40;57.30;;;;;;5062620;28;20669;-63
2024/01/05 09:20:26;;;;;;;0.80;0.80;;;22.40;57.30;;;;;;5066361;28;20446;-63
2024/01/05 09:22:54;;;;;;;1.63;0.90;;;22.40;57.20;;;;;;5056442;28;20952;-64
2024/01/05 09:25:23;;;;;;;0.77;0.70;;;22.40;57.20;;;;;;5065656;28;20450;-65
2024/01/05 09:27:52;;;;;;;0.60;0.60;;;22.40;57.20;;;;;;5063605;28;20477;-64
2024/01/05 09:30:20;;;;;;;0.77;0.70;;;22.40;57.20;;;;;;5058272;28;20504;-64
2024/01/05 09:32:48;;;;;;;1.53;1.10;;;22.40;57.10;;;;;;5061767;28;20458;-63
2024/01/05 09:35:17;;;;;;;0.80;0.80;;;22.40;57.10;;;;;;5050167;28;20893;-64
2024/01/05 09:37:47;;;;;;;0.87;0.70;;;22.40;57.10;;;;;;5049280;28;20450;-62
2024/01/05 09:40:15;;;;;;;0.80;0.70;;;22.40;57.20;;;;;;5054046;28;20805;-64
2024/01/05 09:42:50;;;;;;;0.70;0.70;;;22.40;57.20;;;;;;5053981;28;20456;-63
2024/01/05 09:45:21;;;;;;;0.80;0.70;;;22.40;57.20;;;;;;5053314;28;20477;-66
2024/01/05 09:47:51;;;;;;;1.00;0.90;;;22.30;57.20;;;;;;5054144;28;20482;-62
2024/01/05 09:50:19;;;;;;;0.60;0.60;;;22.30;57.20;;;;;;5050156;28;20461;-63
2024/01/05 09:52:48;;;;;;;1.00;1.00;;;22.30;57.20;;;;;;5060947;28;20453;-63
2024/01/05 09:55:16;;;;;;;1.03;1.00;;;22.30;57.20;;;;;;5059378;28;20461;-62
2024/01/05 09:57:50;;;;;;;0.90;0.90;;;22.30;57.20;;;;;;5064925;28;20852;-63
2024/01/05 10:00:20;;;;;;;0.80;0.80;;;22.30;57.20;;;;;;5056465;28;20539;-62
2024/01/05 10:02:56;;;;;;;0.90;0.80;;;22.30;57.20;;;;;;5053566;28;20462;-64
2024/01/05 10:05:25;;;;;;;0.93;0.80;;;22.30;57.30;;;;;;5051542;28;20465;-62
2024/01/05 10:07:53;;;;;;;0.90;0.90;;;22.30;57.30;;;;;;5053680;28;20491;-63
2024/01/05 10:10:42;;;;;;;0.70;0.70;;;22.30;57.30;;;;;;5054638;28;20451;-63
2024/01/05 10:13:11;;;;;;;0.90;0.80;;;22.30;57.30;;;;;;5056697;28;20462;-65
2024/01/05 10:15:52;;;;;;;0.80;0.80;;;22.30;57.30;;;;;;5062010;28;20471;-63
2024/01/05 10:18:21;;;;;;;0.90;0.70;;;22.30;57.30;;;;;;5062187;28;20459;-64
2024/01/05 10:20:55;;;;;;;0.60;0.60;;;22.30;57.30;;;;;;5052399;28;20545;-65
2024/01/05 10:23:23;;;;;;;0.83;0.83;;;22.30;57.30;;;;;;5055298;28;20473;-66
2024/01/05 10:25:52;;;;;;;0.90;0.90;;;22.30;57.30;;;;;;5052367;28;20445;-63
2024/01/05 10:28:24;;;;;;;0.70;0.70;;;22.30;57.30;;;;;;5048360;28;20478;-65
2024/01/05 10:30:53;;;;;;;2.03;0.90;;;22.30;57.30;;;;;;5048701;28;20475;-63
2024/01/05 10:33:22;;;;;;;0.63;0.63;;;22.30;57.30;;;;;;5054417;28;20633;-63
2024/01/05 10:35:50;;;;;;;0.90;0.90;;;22.30;57.30;;;;;;5050975;28;20462;-65
2024/01/05 10:38:18;;;;;;;1.10;1.00;;;22.40;57.30;;;;;;5052332;28;20455;-63
2024/01/05 10:40:47;;;;;;;1.00;1.00;;;22.40;57.30;;;;;;5051944;28;20457;-63
2024/01/05 10:43:16;;;;;;;0.93;0.80;;;22.40;57.30;;;;;;5051754;28;20454;-64
2024/01/05 10:45:46;;;;;;;0.80;0.60;;;22.40;57.30;;;;;;5050629;28;20447;-64
2024/01/05 10:48:15;;;;;;;0.60;0.60;;;22.40;57.30;;;;;;5054953;28;20481;-63
2024/01/05 10:50:45;;;;;;;1.07;0.70;;;22.40;57.20;;;;;;5052961;28;20461;-63
2024/01/05 10:53:13;;;;;;;0.87;0.80;;;22.40;57.30;;;;;;5049862;28;20456;-63
2024/01/05 10:55:46;;;;;;;1.23;1.13;;;22.40;57.20;;;;;;5052269;28;20830;-62
2024/01/05 10:58:14;;;;;;;1.90;1.10;;;22.40;57.20;;;;;;5051622;28;20439;-62
2024/01/05 11:00:42;;;;;;;1.07;1.00;;;22.50;57.20;;;;;;5054169;28;20459;-62
2024/01/05 11:03:15;;;;;;;1.00;0.80;;;22.50;57.20;;;;;;5048624;28;20457;-65
2024/01/05 11:05:44;;;;;;;1.03;0.70;;;22.50;57.20;;;;;;5051275;28;20486;-62
2024/01/05 11:08:26;;;;;;;0.90;0.90;;;22.50;57.20;;;;;;5051754;28;20794;-62
2024/01/05 11:11:07;;;;;;;0.60;0.60;;;22.50;57.20;;;;;;5040012;28;21170;-63
2024/01/05 11:13:52;;;;;;;0.93;0.83;;;22.50;57.20;;;;;;5044037;28;20467;-62
2024/01/05 11:17:01;;;;;;;0.80;0.80;;;22.50;57.10;;;;;;5051739;28;20538;-63
2024/01/05 11:19:47;;;;;;;0.90;0.90;;;22.40;57.10;;;;;;5059985;28;20452;-61
2024/01/05 11:22:21;;;;;;;0.80;0.60;;;22.40;57.20;;;;;;5061150;28;20461;-62
2024/01/05 11:24:51;;;;;;;0.70;0.70;;;22.40;57.20;;;;;;5052302;28;20461;-62
2024/01/05 11:27:30;;;;;;;0.80;0.80;;;22.40;57.20;;;;;;5051110;28;20482;-66
2024/01/05 11:29:59;;;;;;;0.90;0.60;;;22.40;57.20;;;;;;5049403;28;20450;-62
2024/01/05 11:32:35;;;;;;;1.10;0.77;;;22.30;57.30;;;;;;5055299;28;20440;-61
2024/01/05 11:35:43;;;;;;;0.97;0.90;;;22.30;57.30;;;;;;5050643;28;20934;-63
2024/01/05 11:38:29;;;;;;;0.70;0.70;;;22.30;57.30;;;;;;5048446;28;20458;-61
2024/01/05 11:40:58;;;;;;;1.83;1.00;;;22.20;57.40;;;;;;5053787;28;20516;-61
2024/01/05 11:43:37;;;;;;;1.10;0.90;;;22.20;57.40;;;;;;5070277;28;20455;-61
2024/01/05 11:46:07;;;;;;;1.00;0.97;;;22.20;57.40;;;;;;5054848;28;20453;-64
2024/01/05 11:48:50;;;;;;;0.80;0.80;;;22.20;57.40;;;;;;5054243;28;20481;-62
2024/01/05 11:51:21;;;;;;;0.70;0.70;;;22.20;57.40;;;;;;5048224;28;20439;-62
2024/01/05 11:53:49;;;;;;;1.00;0.90;;;22.20;57.50;;;;;;5052352;28;20490;-63
2024/01/05 11:56:21;;;;;;;1.67;1.00;;;22.20;57.50;;;;;;5053826;28;21253;-64
2024/01/05 11:58:50;;;;;;;1.07;0.83;;;22.30;57.50;;;;;;5050861;28;20517;-65
2024/01/05 12:01:19;;;;;;;2.80;0.93;;;22.30;57.40;;;;;;5037718;28;20450;-63
2024/01/05 12:03:52;;;;;;;1.60;0.53;;;22.30;57.40;;;;;;5045188;28;20561;-62
2024/01/05 12:06:23;;;;;;;0.80;0.80;;;22.30;57.40;;;;;;5048873;28;20486;-62
2024/01/05 12:08:52;;;;;;;1.47;1.10;;;22.30;57.40;;;;;;5045171;28;20474;-62
2024/01/05 12:11:21;;;;;;;1.20;1.10;;;22.40;57.40;;;;;;5042999;28;20842;-63
2024/01/05 12:13:49;;;;;;;0.83;0.80;;;22.40;57.30;;;;;;5050395;28;20910;-67
2024/01/05 12:16:18;;;;;;;1.00;0.80;;;22.40;57.30;;;;;;5047977;28;20474;-63
2024/01/05 12:18:49;;;;;;;1.20;1.10;;;22.40;57.20;;;;;;5042998;28;20459;-62
2024/01/05 12:21:20;;;;;;;0.90;0.90;;;22.50;57.20;;;;;;5043491;28;20963;-62
2024/01/05 12:23:54;;;;;;;0.80;0.80;;;22.50;57.20;;;;;;5048549;28;20539;-62
2024/01/05 12:26:24;;;;;;;1.00;0.80;;;22.50;57.20;;;;;;5046440;28;20923;-62
2024/01/05 12:28:54;;;;;;;0.90;0.90;;;22.50;57.20;;;;;;5048665;28;20519;-65
2024/01/05 12:31:23;;;;;;;0.77;0.60;;;22.50;57.20;;;;;;5047764;28;20812;-62
2024/01/05 12:33:52;;;;;;;1.90;0.87;;;22.50;57.20;;;;;;5047929;28;20449;-64
2024/01/05 12:36:25;;;;;;;0.87;0.80;;;22.50;57.10;;;;;;5043286;28;21021;-64
2024/01/05 12:39:06;;;;;;;1.00;0.87;;;22.50;57.10;;;;;;5047200;28;20454;-62
2024/01/05 12:41:35;;;;;;;0.80;0.80;;;22.50;57.10;;;;;;5049983;28;20423;-62
2024/01/05 12:44:07;;;;;;;1.00;1.00;;;22.50;57.10;;;;;;5049563;28;20771;-62
2024/01/05 12:46:43;;;;;;;0.87;0.73;;;22.50;57.10;;;;;;5048981;28;20464;-63
2024/01/05 12:49:22;;;;;;;1.07;0.83;;;22.40;57.20;;;;;;5042984;28;20505;-61
2024/01/05 12:51:52;;;;;;;0.73;0.63;;;22.40;57.20;;;;;;5046699;28;20537;-62
2024/01/05 12:54:25;;;;;;;1.23;0.83;;;22.40;57.20;;;;;;5045012;28;20483;-62
2024/01/05 12:56:54;;;;;;;3.17;0.70;;;22.40;57.20;;;;;;5048792;28;20442;-62
2024/01/05 12:59:24;;;;;;;1.10;1.03;;;22.30;57.30;;;;;;5051739;28;20443;-61
2024/01/05 13:01:59;;;;;;;1.00;0.93;;;22.30;57.30;;;;;;5036809;28;20786;-62